Time;durP1;ratioP1;P1;durP2;ratioP2;P2;SDS_P1;SDS_P2;PMS_P1;PMS_P2;Temp;Humidity;BMP_temperature;BMP_pressure;BME280_temperature;BME280_humidity;BME280_pressure;Samples;Min_cycle;Max_cycle;Signal;HPM_P1;HPM_P2
2022/08/22 00:01:59;;;;;;;15.60;4.95;;;17.10;99.90;;;;;;5095120;28;20379;-73
2022/08/22 00:04:30;;;;;;;16.63;5.28;;;17.10;99.90;;;;;;5094778;28;20058;-73
2022/08/22 00:07:23;;;;;;;13.50;4.43;;;17.10;99.90;;;;;;5113154;28;20145;-74
2022/08/22 00:09:52;;;;;;;21.42;4.82;;;17.10;99.90;;;;;;5113029;28;20520;-73
2022/08/22 00:12:29;;;;;;;20.98;4.97;;;17.00;99.90;;;;;;5111595;28;20336;-73
2022/08/22 00:15:16;;;;;;;17.30;4.53;;;17.00;99.90;;;;;;5112891;28;20487;-73
2022/08/22 00:18:03;;;;;;;17.70;4.72;;;17.00;99.90;;;;;;5112323;28;20090;-73
2022/08/22 00:20:34;;;;;;;;;;;17.00;99.90;;;;;;5112515;28;20475;-73
2022/08/22 00:23:16;;;;;;;19.98;4.85;;;17.00;99.90;;;;;;5112648;28;19987;-73
2022/08/22 00:25:50;;;;;;;18.95;4.25;;;17.00;99.90;;;;;;5094328;28;20101;-75
2022/08/22 00:28:41;;;;;;;15.15;4.75;;;17.00;99.90;;;;;;5082677;28;20055;-75
2022/08/22 00:31:33;;;;;;;17.13;4.95;;;17.00;99.90;;;;;;5091857;28;20097;-73
2022/08/22 00:34:38;;;;;;;13.48;4.82;;;16.90;99.90;;;;;;5074121;28;20052;-74
2022/08/22 00:37:40;;;;;;;13.52;4.40;;;16.90;99.90;;;;;;5091719;28;20162;-73
2022/08/22 00:40:44;;;;;;;16.40;4.55;;;16.90;99.90;;;;;;5066170;28;20078;-74
2022/08/22 00:43:12;;;;;;;14.35;3.97;;;16.90;99.90;;;;;;5090995;28;20046;-73
2022/08/22 00:45:45;;;;;;;14.90;4.55;;;16.80;99.90;;;;;;5091593;28;20187;-76
2022/08/22 00:48:26;;;;;;;18.50;4.18;;;16.80;99.90;;;;;;5091261;28;20522;-73
2022/08/22 00:50:54;;;;;;;18.30;4.53;;;16.80;99.90;;;;;;5091906;28;20135;-73
2022/08/22 00:53:44;;;;;;;19.17;4.43;;;16.80;99.90;;;;;;5056600;28;20059;-74
2022/08/22 00:56:40;;;;;;;16.15;3.92;;;16.80;99.90;;;;;;5090266;28;20471;-73
2022/08/22 00:59:42;;;;;;;20.35;4.22;;;16.80;99.90;;;;;;5090756;28;20518;-73
2022/08/22 01:02:33;;;;;;;21.95;4.30;;;16.80;99.90;;;;;;5091362;28;20083;-73
2022/08/22 01:05:01;;;;;;;16.13;4.10;;;16.70;99.90;;;;;;5091469;28;20050;-73
2022/08/22 01:07:58;;;;;;;17.80;4.10;;;16.70;99.90;;;;;;5090699;28;20051;-73
2022/08/22 01:10:54;;;;;;;15.30;4.00;;;16.70;99.90;;;;;;5073664;28;20044;-73
2022/08/22 01:13:43;;;;;;;16.08;3.67;;;16.60;99.90;;;;;;5090433;28;20047;-73
2022/08/22 01:16:33;;;;;;;18.13;4.68;;;16.60;99.90;;;;;;5091566;28;20434;-73
2022/08/22 01:19:21;;;;;;;16.17;4.28;;;16.60;99.90;;;;;;5091300;28;20043;-73
2022/08/22 01:22:25;;;;;;;16.63;4.13;;;16.50;99.90;;;;;;5073047;28;20048;-76
2022/08/22 01:25:18;;;;;;;16.75;4.30;;;16.40;99.90;;;;;;5091294;28;20404;-72
2022/08/22 01:28:03;;;;;;;16.08;4.20;;;16.40;99.90;;;;;;5090508;28;20075;-72
2022/08/22 01:30:45;;;;;;;15.15;4.55;;;16.40;99.90;;;;;;5073568;28;20047;-73
2022/08/22 01:33:41;;;;;;;15.63;4.15;;;16.30;99.90;;;;;;5091053;28;20217;-73
2022/08/22 01:36:16;;;;;;;;;;;16.30;99.90;;;;;;5091464;28;20516;-72
2022/08/22 01:38:45;;;;;;;17.50;3.95;;;16.30;99.90;;;;;;5091707;28;19927;-74
2022/08/22 01:41:42;;;;;;;15.98;4.05;;;16.30;99.90;;;;;;5072366;28;20048;-74
2022/08/22 01:44:39;;;;;;;14.20;4.35;;;16.30;99.90;;;;;;5091373;28;20094;-74
2022/08/22 01:47:15;;;;;;;13.18;4.35;;;16.20;99.90;;;;;;5073550;28;20047;-74
2022/08/22 01:50:09;;;;;;;17.08;4.65;;;16.20;99.90;;;;;;5091050;28;20067;-72
2022/08/22 01:52:50;;;;;;;14.07;3.95;;;16.10;99.90;;;;;;5090772;28;20047;-74
2022/08/22 01:55:29;;;;;;;18.60;4.53;;;16.10;99.90;;;;;;5091487;28;20052;-72
2022/08/22 01:58:13;;;;;;;13.60;3.97;;;16.00;99.90;;;;;;5091790;28;20126;-72
2022/08/22 02:01:09;;;;;;;18.55;4.18;;;16.00;99.90;;;;;;5057869;28;20048;-72
2022/08/22 02:04:13;;;;;;;23.30;5.13;;;15.90;99.90;;;;;;5057441;28;20051;-72
2022/08/22 02:06:50;;;;;;;24.05;5.15;;;15.90;99.90;;;;;;5074543;28;20071;-71
2022/08/22 02:09:40;;;;;;;18.05;5.60;;;15.90;99.90;;;;;;5093134;28;20108;-72
2022/08/22 02:12:35;;;;;;;20.45;5.97;;;15.90;99.90;;;;;;5059107;28;20059;-72
2022/08/22 02:15:19;;;;;;;15.55;5.50;;;15.90;99.90;;;;;;5078126;28;20044;-72
2022/08/22 02:18:04;;;;;;;21.42;7.18;;;15.90;99.90;;;;;;5060619;28;20047;-73
2022/08/22 02:20:46;;;;;;;20.25;6.20;;;16.00;99.90;;;;;;5095551;28;20040;-73
2022/08/22 02:23:24;;;;;;;18.33;6.30;;;15.90;99.90;;;;;;5095204;28;20541;-72
2022/08/22 02:26:02;;;;;;;21.02;6.82;;;15.90;99.90;;;;;;5077872;28;20126;-73
2022/08/22 02:28:31;;;;;;;16.83;6.35;;;15.90;99.90;;;;;;5095731;28;20040;-75
2022/08/22 02:31:14;;;;;;;16.02;6.05;;;15.90;99.90;;;;;;5095476;28;20055;-72
2022/08/22 02:33:45;;;;;;;16.92;5.85;;;15.90;99.90;;;;;;5095941;28;20044;-73
2022/08/22 02:36:14;;;;;;;17.90;5.68;;;16.00;99.90;;;;;;5077047;28;20060;-73
2022/08/22 02:39:07;;;;;;;15.95;5.70;;;16.00;99.90;;;;;;5077171;28;20538;-74
2022/08/22 02:41:48;;;;;;;21.33;6.25;;;16.10;99.90;;;;;;5077519;28;20040;-80
2022/08/22 02:44:30;;;;;;;20.40;5.97;;;16.10;99.90;;;;;;5095608;28;20396;-73
2022/08/22 02:47:28;;;;;;;22.90;8.23;;;16.20;99.90;;;;;;5095989;28;20043;-72
2022/08/22 02:50:02;;;;;;;21.65;6.15;;;16.20;99.90;;;;;;5095811;28;20367;-72
2022/08/22 02:52:52;;;;;;;19.42;7.47;;;16.10;99.90;;;;;;5095434;28;20147;-72
2022/08/22 02:55:32;;;;;;;22.23;7.03;;;16.00;99.90;;;;;;5062171;28;20452;-73
2022/08/22 02:58:17;;;;;;;19.95;7.15;;;15.90;99.90;;;;;;5077589;28;20048;-77
2022/08/22 03:01:09;;;;;;;19.83;7.53;;;15.80;99.90;;;;;;5060978;28;20052;-72
2022/08/22 03:03:41;;;;;;;21.30;7.18;;;15.80;99.90;;;;;;5063514;28;20060;-73
2022/08/22 03:06:16;;;;;;;21.15;6.97;;;15.80;99.90;;;;;;5077677;28;20048;-73
2022/08/22 03:09:15;;;;;;;17.35;6.85;;;15.70;99.90;;;;;;5094547;28;20050;-72
2022/08/22 03:12:06;;;;;;;23.80;7.57;;;15.60;99.90;;;;;;5076380;28;20082;-71
2022/08/22 03:14:46;;;;;;;18.80;7.15;;;15.60;99.90;;;;;;5060193;28;20048;-72
2022/08/22 03:17:56;;;;;;;19.35;7.03;;;15.60;99.90;;;;;;5077123;28;20521;-72
2022/08/22 03:20:50;;;;;;;21.10;6.60;;;15.60;99.90;;;;;;5077350;28;20055;-72
2022/08/22 03:23:43;;;;;;;22.40;7.03;;;15.60;99.90;;;;;;5093893;28;20098;-72
2022/08/22 03:26:29;;;;;;;19.60;7.38;;;15.60;99.90;;;;;;5094829;28;20083;-74
2022/08/22 03:29:29;;;;;;;23.95;7.45;;;15.60;99.90;;;;;;5076586;28;20439;-73
2022/08/22 03:32:18;;;;;;;24.23;7.90;;;15.60;99.90;;;;;;5076319;28;20044;-72
2022/08/22 03:35:04;;;;;;;21.67;7.22;;;15.50;99.90;;;;;;5094658;28;20043;-72
2022/08/22 03:37:39;;;;;;;19.85;7.05;;;15.60;99.90;;;;;;5094759;28;20059;-75
2022/08/22 03:40:44;;;;;;;19.02;7.70;;;15.60;99.90;;;;;;5094054;28;20145;-72
2022/08/22 03:43:32;;;;;;;23.50;7.35;;;15.50;99.90;;;;;;5025336;28;20104;-72
2022/08/22 03:46:18;;;;;;;23.00;8.60;;;15.60;99.90;;;;;;5059486;28;20123;-73
2022/08/22 03:48:56;;;;;;;20.33;7.47;;;15.50;99.90;;;;;;5093984;28;20048;-74
2022/08/22 03:51:50;;;;;;;22.00;7.25;;;15.50;99.90;;;;;;5075815;28;20127;-75
2022/08/22 03:54:36;;;;;;;21.10;6.95;;;15.50;99.90;;;;;;5094877;28;20051;-73
2022/08/22 03:57:56;;;;;;;21.08;7.00;;;15.50;99.90;;;;;;5075245;28;20077;-73
2022/08/22 04:00:52;;;;;;;20.65;7.30;;;15.50;99.90;;;;;;4960600;28;20042;-74
2022/08/22 04:03:39;;;;;;;19.75;7.68;;;15.60;99.90;;;;;;5093783;28;20074;-73
2022/08/22 04:06:35;;;;;;;24.05;7.20;;;15.50;99.90;;;;;;5094427;28;20055;-72
2022/08/22 04:09:25;;;;;;;24.23;7.50;;;15.50;99.90;;;;;;5075517;28;20091;-73
2022/08/22 04:12:28;;;;;;;21.23;6.95;;;15.60;99.90;;;;;;5075061;28;20052;-73
2022/08/22 04:15:51;;;;;;;20.50;7.13;;;15.60;99.90;;;;;;5075642;28;20096;-73
2022/08/22 04:18:43;;;;;;;16.95;7.45;;;15.60;99.90;;;;;;4959856;28;20086;-73
2022/08/22 04:21:34;;;;;;;22.70;6.78;;;15.60;99.90;;;;;;4992001;28;20073;-74
2022/08/22 04:24:14;;;;;;;19.20;6.80;;;15.50;99.90;;;;;;5088144;28;20052;-74
2022/08/22 04:27:05;;;;;;;18.05;6.75;;;15.60;99.90;;;;;;5074924;28;20448;-74
2022/08/22 04:29:41;;;;;;;23.42;6.65;;;15.60;99.90;;;;;;5058787;28;20613;-73
2022/08/22 04:32:34;;;;;;;23.95;7.03;;;15.60;99.90;;;;;;5075534;28;20050;-73
2022/08/22 04:35:12;;;;;;;24.33;6.68;;;15.60;99.90;;;;;;5074622;28;20063;-74
2022/08/22 04:37:45;;;;;;;20.80;6.28;;;15.60;99.90;;;;;;5074558;28;20141;-72
2022/08/22 04:40:22;;;;;;;21.00;6.18;;;15.70;99.90;;;;;;5093728;28;20056;-73
2022/08/22 04:43:00;;;;;;;19.90;6.55;;;15.70;99.90;;;;;;5093203;28;20040;-72
2022/08/22 04:45:45;;;;;;;20.42;7.07;;;15.70;99.90;;;;;;5075412;28;20040;-73
2022/08/22 04:48:28;;;;;;;23.75;6.93;;;15.70;99.90;;;;;;5075210;28;20531;-72
2022/08/22 04:51:04;;;;;;;17.80;6.35;;;15.80;99.90;;;;;;5092933;28;20052;-72
2022/08/22 04:53:33;;;;;;;23.02;6.30;;;15.90;99.90;;;;;;5074885;28;20044;-71
2022/08/22 04:56:14;;;;;;;22.20;6.45;;;15.90;99.90;;;;;;5092700;28;20056;-72
2022/08/22 04:59:02;;;;;;;23.77;7.03;;;15.90;99.90;;;;;;5074725;28;20067;-72
2022/08/22 05:01:43;;;;;;;20.23;6.00;;;15.90;99.90;;;;;;5075032;28;20044;-77
2022/08/22 05:04:28;;;;;;;20.63;6.13;;;16.00;99.90;;;;;;5074575;28;20044;-74
2022/08/22 05:07:20;;;;;;;20.40;6.00;;;16.00;99.90;;;;;;5075566;28;20083;-74
2022/08/22 05:09:55;;;;;;;19.05;5.50;;;16.00;99.90;;;;;;5093304;28;20102;-73
2022/08/22 05:12:38;;;;;;;18.42;6.28;;;16.00;99.90;;;;;;5074431;28;20138;-74
2022/08/22 05:15:15;;;;;;;18.48;6.47;;;16.00;99.90;;;;;;5075429;28;20048;-74
2022/08/22 05:17:44;;;;;;;18.83;6.00;;;16.10;99.90;;;;;;5074526;28;20085;-73
2022/08/22 05:20:17;;;;;;;21.02;6.00;;;16.10;99.90;;;;;;5074674;28;20138;-74
2022/08/22 05:22:49;;;;;;;23.63;6.53;;;16.10;99.90;;;;;;5074991;28;20508;-73
2022/08/22 05:25:24;;;;;;;25.80;6.97;;;16.10;99.90;;;;;;5093046;28;20059;-71
2022/08/22 05:27:58;;;;;;;23.95;6.68;;;16.10;99.90;;;;;;5092862;28;20044;-81
2022/08/22 05:30:27;;;;;;;16.08;6.25;;;16.10;99.90;;;;;;5093133;28;20048;-72
2022/08/22 05:33:11;;;;;;;25.52;7.28;;;16.10;99.90;;;;;;5092378;28;20051;-72
2022/08/22 05:35:51;;;;;;;18.48;5.95;;;16.10;99.90;;;;;;5057770;28;20112;-74
2022/08/22 05:38:21;;;;;;;19.83;6.47;;;16.10;99.90;;;;;;5092968;28;20052;-73
2022/08/22 05:40:56;;;;;;;16.55;6.78;;;16.10;99.90;;;;;;5092885;28;20103;-74
2022/08/22 05:43:24;;;;;;;17.45;6.15;;;16.20;99.90;;;;;;5075036;28;20113;-75
2022/08/22 05:45:50;;;;;;;22.65;6.35;;;16.20;99.90;;;;;;5058811;28;20054;-73
2022/08/22 05:48:20;;;;;;;18.55;6.32;;;16.20;99.90;;;;;;5078020;28;20392;-73
2022/08/22 05:51:15;;;;;;;20.10;6.30;;;16.30;99.90;;;;;;5077958;28;20077;-72
2022/08/22 05:53:46;;;;;;;25.88;6.72;;;16.30;99.90;;;;;;5086581;28;20056;-72
2022/08/22 05:56:28;;;;;;;20.85;6.28;;;16.40;99.90;;;;;;5095325;28;20388;-73
2022/08/22 05:59:17;;;;;;;17.75;5.85;;;16.40;99.90;;;;;;5096208;28;20365;-74
2022/08/22 06:02:04;;;;;;;21.75;6.97;;;16.40;99.90;;;;;;5061798;28;20040;-73
2022/08/22 06:04:39;;;;;;;21.38;6.78;;;16.50;99.90;;;;;;5095978;28;20048;-73
2022/08/22 06:07:24;;;;;;;23.30;6.18;;;16.50;99.90;;;;;;5061373;28;20396;-72
2022/08/22 06:10:28;;;;;;;19.58;6.53;;;16.50;99.90;;;;;;5095927;28;20055;-73
2022/08/22 06:13:31;;;;;;;26.77;6.88;;;16.60;99.90;;;;;;5077462;28;20054;-73
2022/08/22 06:15:56;;;;;;;20.58;7.25;;;16.60;99.90;;;;;;5061860;28;20136;-73
2022/08/22 06:18:25;;;;;;;24.50;5.80;;;16.60;99.90;;;;;;5095362;28;20139;-73
2022/08/22 06:21:00;;;;;;;23.17;6.68;;;16.60;99.90;;;;;;5077650;28;20059;-73
2022/08/22 06:23:50;;;;;;;20.50;5.82;;;16.60;99.90;;;;;;5077747;28;20052;-74
2022/08/22 06:26:18;;;;;;;20.17;6.18;;;16.70;99.90;;;;;;5078284;28;20170;-74
2022/08/22 06:28:46;;;;;;;17.70;6.28;;;16.70;99.90;;;;;;5095088;28;20102;-73
2022/08/22 06:31:27;;;;;;;24.40;5.82;;;16.80;99.90;;;;;;5077842;28;20052;-72
2022/08/22 06:33:59;;;;;;;20.80;5.85;;;16.80;99.90;;;;;;5078145;28;20044;-72
2022/08/22 06:36:32;;;;;;;15.98;6.05;;;16.80;99.90;;;;;;5094867;28;20048;-73
2022/08/22 06:39:25;;;;;;;17.08;6.30;;;16.90;99.90;;;;;;5095223;28;20098;-79
2022/08/22 06:41:56;;;;;;;14.73;5.68;;;17.00;99.90;;;;;;5061403;28;20044;-73
2022/08/22 06:44:30;;;;;;;16.88;6.22;;;17.00;99.90;;;;;;5077253;28;20051;-72
2022/08/22 06:46:59;;;;;;;19.60;6.18;;;17.00;99.90;;;;;;5095052;28;20075;-73
2022/08/22 06:49:26;;;;;;;19.73;6.57;;;17.00;99.90;;;;;;5060369;28;20059;-73
2022/08/22 06:51:59;;;;;;;24.42;6.80;;;17.10;99.90;;;;;;5077057;28;20451;-72
2022/08/22 06:54:29;;;;;;;18.50;6.85;;;17.10;99.90;;;;;;5095238;28;20399;-72
2022/08/22 06:56:55;;;;;;;26.92;10.75;;;17.10;99.90;;;;;;5094832;28;20442;-73
2022/08/22 06:59:34;;;;;;;28.75;7.75;;;17.20;99.90;;;;;;5094730;28;20056;-72
2022/08/22 07:02:23;;;;;;;18.30;6.32;;;17.20;99.90;;;;;;5060302;28;20151;-75
2022/08/22 07:04:50;;;;;;;23.67;5.88;;;17.40;99.90;;;;;;5094664;28;20421;-72
2022/08/22 07:07:18;;;;;;;21.63;5.50;;;17.50;99.90;;;;;;5076644;28;20387;-73
2022/08/22 07:09:54;;;;;;;30.60;5.93;;;17.60;99.90;;;;;;5094781;28;20123;-73
2022/08/22 07:12:28;;;;;;;14.70;5.50;;;17.70;99.90;;;;;;5094542;28;20108;-73
2022/08/22 07:14:59;;;;;;;17.20;5.13;;;17.70;99.90;;;;;;5094940;28;20289;-73
2022/08/22 07:17:31;;;;;;;19.13;5.10;;;17.90;99.90;;;;;;5076543;28;20051;-73
2022/08/22 07:20:05;;;;;;;17.70;4.50;;;17.90;99.90;;;;;;5059843;28;20067;-72
2022/08/22 07:22:36;;;;;;;19.40;4.60;;;18.00;99.90;;;;;;5094735;28;20051;-73
2022/08/22 07:25:07;;;;;;;21.60;5.40;;;18.10;99.90;;;;;;5060052;28;20043;-72
2022/08/22 07:28:12;;;;;;;18.58;4.95;;;18.20;99.90;;;;;;5094638;28;20051;-73
2022/08/22 07:30:47;;;;;;;13.65;4.70;;;18.30;99.90;;;;;;5076187;28;20044;-72
2022/08/22 07:33:37;;;;;;;17.50;4.60;;;18.40;99.90;;;;;;5076016;28;20091;-73
2022/08/22 07:36:19;;;;;;;15.85;4.03;;;18.60;99.90;;;;;;5094114;28;20066;-73
2022/08/22 07:38:58;;;;;;;14.68;4.15;;;18.70;99.90;;;;;;5075957;28;20134;-72
2022/08/22 07:41:45;;;;;;;14.88;4.57;;;18.80;99.90;;;;;;5095102;28;20067;-73
2022/08/22 07:44:22;;;;;;;17.50;4.22;;;18.80;99.90;;;;;;5076372;28;20525;-71
2022/08/22 07:47:15;;;;;;;17.30;4.18;;;18.90;99.90;;;;;;5076822;28;20419;-71
2022/08/22 07:49:53;;;;;;;15.43;3.83;;;19.00;99.90;;;;;;5059568;28;20429;-73
2022/08/22 07:52:21;;;;;;;24.85;3.65;;;19.10;99.90;;;;;;5059017;28;20048;-74
2022/08/22 07:55:14;;;;;;;15.23;3.38;;;19.00;99.90;;;;;;5094140;28;20088;-72
2022/08/22 07:57:45;;;;;;;15.07;3.20;;;19.20;99.90;;;;;;5093705;28;20040;-73
2022/08/22 08:00:15;;;;;;;17.73;3.35;;;19.30;99.90;;;;;;5058906;28;20122;-74
2022/08/22 08:02:57;;;;;;;13.73;3.33;;;19.40;99.90;;;;;;5075679;28;20079;-73
2022/08/22 08:05:26;;;;;;;24.23;3.53;;;19.50;99.90;;;;;;5093434;28;20196;-71
2022/08/22 08:07:54;;;;;;;16.25;3.65;;;19.70;99.90;;;;;;5075443;28;20083;-73
2022/08/22 08:10:31;;;;;;;12.40;3.00;;;19.80;99.90;;;;;;5093432;28;20043;-72
2022/08/22 08:13:02;;;;;;;15.50;2.97;;;19.90;99.90;;;;;;5075317;28;20151;-71
2022/08/22 08:15:31;;;;;;;16.73;2.70;;;20.00;99.90;;;;;;5076091;28;20048;-73
2022/08/22 08:18:02;;;;;;;17.38;2.97;;;20.10;99.90;;;;;;5093539;28;20101;-73
2022/08/22 08:20:29;;;;;;;17.27;3.67;;;20.10;99.90;;;;;;5075469;28;20051;-73
2022/08/22 08:22:56;;;;;;;17.67;2.85;;;20.10;99.90;;;;;;5075530;28;20105;-73
2022/08/22 08:25:26;;;;;;;15.88;3.00;;;20.10;99.90;;;;;;5075267;28;20044;-74
2022/08/22 08:30:52;;;;;;;15.75;3.08;;;20.00;99.90;;;;;;5061803;28;20064;-74
2022/08/22 08:33:20;;;;;;;13.43;2.95;;;20.00;99.90;;;;;;5093418;28;20044;-73
2022/08/22 08:36:31;;;;;;;11.65;3.08;;;20.00;99.90;;;;;;5074676;28;20059;-73
2022/08/22 08:39:13;;;;;;;11.70;2.45;;;20.00;99.90;;;;;;5067507;28;20138;-72
2022/08/22 08:42:20;;;;;;;26.83;4.07;;;20.00;99.90;;;;;;5074789;28;20417;-76
2022/08/22 08:45:07;;;;;;;14.20;3.20;;;19.90;99.90;;;;;;5075180;28;20467;-73
2022/08/22 08:48:08;;;;;;;19.15;3.10;;;20.00;99.90;;;;;;5075097;28;20044;-74
2022/08/22 08:51:02;;;;;;;12.73;2.83;;;20.10;99.90;;;;;;5092838;28;20555;-73
2022/08/22 08:54:10;;;;;;;18.15;2.83;;;20.40;99.90;;;;;;5075041;28;20051;-73
2022/08/22 08:56:54;;;;;;;13.50;3.03;;;20.60;99.90;;;;;;5074392;28;20468;-74
2022/08/22 08:59:41;;;;;;;15.75;2.90;;;20.90;99.90;;;;;;5093413;28;20050;-72
2022/08/22 09:02:39;;;;;;;20.92;3.08;;;20.90;99.90;;;;;;5075392;28;20337;-74
2022/08/22 09:05:49;;;;;;;15.88;2.60;;;21.10;99.90;;;;;;5092813;28;20056;-74
2022/08/22 09:08:41;;;;;;;13.13;2.72;;;20.90;99.90;;;;;;5064013;28;20088;-74
2022/08/22 09:11:37;;;;;;;15.13;2.83;;;21.20;99.90;;;;;;5074929;28;20044;-74
2022/08/22 09:14:27;;;;;;;10.75;2.10;;;21.50;99.90;;;;;;5092933;28;20040;-72
2022/08/22 09:17:04;;;;;;;15.25;2.40;;;21.80;99.90;;;;;;5074662;28;20119;-75
2022/08/22 09:20:01;;;;;;;14.52;2.63;;;21.90;99.90;;;;;;5075324;28;20174;-73
2022/08/22 09:22:48;;;;;;;15.73;2.58;;;21.90;99.90;;;;;;5079633;28;20364;-72
2022/08/22 09:25:36;;;;;;;16.20;2.35;;;21.60;99.90;;;;;;5079150;28;20047;-73
2022/08/22 09:28:25;;;;;;;19.10;2.60;;;21.50;99.90;;;;;;5078755;28;20541;-73
2022/08/22 09:31:06;;;;;;;20.05;2.72;;;21.40;99.90;;;;;;5096974;28;20044;-74
2022/08/22 09:33:42;;;;;;;12.82;2.50;;;21.60;99.90;;;;;;5079294;28;20036;-73
2022/08/22 09:36:20;;;;;;;13.85;2.42;;;21.70;99.90;;;;;;5096654;28;20287;-74
2022/08/22 09:38:52;;;;;;;14.75;2.20;;;21.90;99.90;;;;;;5096737;28;20242;-72
2022/08/22 09:41:43;;;;;;;14.00;2.40;;;21.90;99.90;;;;;;5097203;28;20036;-73
2022/08/22 09:44:34;;;;;;;13.77;2.78;;;22.00;99.90;;;;;;5096772;28;20047;-74
2022/08/22 09:47:25;;;;;;;16.40;2.53;;;22.10;99.90;;;;;;5078925;28;20040;-72
2022/08/22 09:50:09;;;;;;;15.05;2.80;;;22.00;99.90;;;;;;5078495;28;20153;-74
2022/08/22 09:52:34;;;;;;;13.57;2.53;;;22.30;99.90;;;;;;5097193;28;20044;-74
2022/08/22 09:55:15;;;;;;;18.73;3.17;;;22.50;99.90;;;;;;5079580;28;20043;-74
2022/08/22 09:57:58;;;;;;;17.83;2.97;;;22.40;99.90;;;;;;5078577;28;20040;-76
2022/08/22 10:00:46;;;;;;;19.33;3.00;;;22.40;99.90;;;;;;5096817;28;20044;-74
2022/08/22 10:03:26;;;;;;;16.67;2.85;;;22.40;99.90;;;;;;5079283;28;20044;-72
2022/08/22 10:06:00;;;;;;;12.32;2.13;;;22.10;99.90;;;;;;5062387;28;20047;-74
2022/08/22 10:08:56;;;;;;;15.70;2.78;;;22.10;99.90;;;;;;5096744;28;20059;-74
2022/08/22 10:11:27;;;;;;;12.40;3.25;;;22.40;99.90;;;;;;5096421;28;20040;-74
2022/08/22 10:14:13;;;;;;;15.95;2.50;;;22.70;99.90;;;;;;5078113;28;20468;-75
2022/08/22 10:16:50;;;;;;;;;;;22.80;99.90;;;;;;5096390;28;20110;-73
2022/08/22 10:19:27;;;;;;;12.90;2.38;;;22.90;99.90;;;;;;5078172;28;19916;-73
2022/08/22 10:22:14;;;;;;;18.38;2.60;;;22.80;99.90;;;;;;5095639;28;20073;-74
2022/08/22 10:25:03;;;;;;;14.77;2.90;;;23.00;99.90;;;;;;5078355;28;20040;-75
2022/08/22 10:27:52;;;;;;;8.70;2.22;;;23.30;99.90;;;;;;5081994;28;20486;-73
2022/08/22 10:30:36;;;;;;;13.80;2.38;;;23.50;99.90;;;;;;5077813;28;20040;-73
2022/08/22 10:33:23;;;;;;;16.48;2.80;;;23.40;99.90;;;;;;5076126;28;20044;-73
2022/08/22 10:36:06;;;;;;;15.20;2.90;;;23.20;99.90;;;;;;5077513;28;20105;-74
2022/08/22 10:38:45;;;;;;;14.93;2.33;;;23.40;99.90;;;;;;5095367;28;20079;-74
2022/08/22 10:41:27;;;;;;;11.45;1.90;;;23.10;99.90;;;;;;5077792;28;20202;-76
2022/08/22 10:44:02;;;;;;;14.52;1.98;;;23.40;99.90;;;;;;5094285;28;20388;-74
2022/08/22 10:46:51;;;;;;;13.80;2.22;;;23.50;99.90;;;;;;5077195;28;20494;-76
2022/08/22 10:49:32;;;;;;;14.25;2.33;;;23.80;99.90;;;;;;5078042;28;20139;-73
2022/08/22 10:52:04;;;;;;;13.48;2.78;;;;;;;;;;5076984;28;20105;-78
2022/08/22 10:54:51;;;;;;;17.80;3.03;;;23.50;99.90;;;;;;5095143;28;20044;-73
2022/08/22 10:57:53;;;;;;;14.75;2.72;;;23.30;99.70;;;;;;5060144;28;20063;-77
2022/08/22 11:00:28;;;;;;;14.73;2.75;;;23.50;99.90;;;;;;5076401;28;20408;-74
2022/08/22 11:03:25;;;;;;;13.35;2.70;;;23.70;99.90;;;;;;5094723;28;20055;-73
2022/08/22 11:05:57;;;;;;;16.60;2.85;;;23.50;99.90;;;;;;5076364;28;20500;-73
2022/08/22 11:08:26;;;;;;;14.82;2.70;;;23.30;99.50;;;;;;5060471;28;20500;-75
2022/08/22 11:10:55;;;;;;;15.55;2.75;;;22.90;99.90;;;;;;5094661;28;20131;-73
2022/08/22 11:13:32;;;;;;;19.00;2.88;;;22.80;99.90;;;;;;5094452;28;20188;-72
2022/08/22 11:16:19;;;;;;;13.85;2.83;;;22.90;99.90;;;;;;5094845;28;20527;-74
2022/08/22 11:18:54;;;;;;;13.30;3.38;;;22.90;99.90;;;;;;5094662;28;20069;-73
2022/08/22 11:21:53;;;;;;;13.93;2.97;;;23.10;99.90;;;;;;5094643;28;20054;-74
2022/08/22 11:24:19;;;;;;;17.83;3.00;;;23.00;99.90;;;;;;5095031;28;20101;-74
2022/08/22 11:27:22;;;;;;;16.53;2.80;;;23.20;99.90;;;;;;5094806;28;20048;-74
2022/08/22 11:30:07;;;;;;;12.35;2.83;;;23.40;99.90;;;;;;5028994;28;20059;-74
2022/08/22 11:32:55;;;;;;;18.00;3.67;;;23.60;99.90;;;;;;5076936;28;20048;-74
2022/08/22 11:35:24;;;;;;;14.88;2.88;;;23.50;99.90;;;;;;5060177;28;20040;-75
2022/08/22 11:38:14;;;;;;;16.60;3.28;;;23.70;99.90;;;;;;5076583;28;20043;-74
2022/08/22 11:41:20;;;;;;;17.20;2.97;;;24.00;99.90;;;;;;5094309;28;20054;-73
2022/08/22 11:44:14;;;;;;;13.23;3.33;;;24.20;99.90;;;;;;5093835;28;20051;-74
2022/08/22 11:46:44;;;;;;;15.85;3.30;;;24.20;99.90;;;;;;5075872;28;20052;-75
2022/08/22 11:49:32;;;;;;;18.70;2.85;;;24.30;99.90;;;;;;5076399;28;20176;-75
2022/08/22 11:51:58;;;;;;;22.42;3.10;;;24.10;98.40;;;;;;5076365;28;20040;-74
2022/08/22 11:54:38;;;;;;;15.07;3.27;;;23.80;99.00;;;;;;5075875;28;20104;-74
2022/08/22 11:57:12;;;;;;;20.02;3.50;;;23.60;99.50;;;;;;5076530;28;20046;-72
2022/08/22 11:59:44;;;;;;;17.00;3.42;;;23.20;99.30;;;;;;5094474;28;20117;-74
2022/08/22 12:02:48;;;;;;;15.38;3.53;;;23.20;99.90;;;;;;5094248;28;20080;-74
2022/08/22 12:05:20;;;;;;;16.85;4.07;;;23.20;99.90;;;;;;5039782;28;20079;-76
2022/08/22 12:08:29;;;;;;;12.40;3.45;;;23.20;99.90;;;;;;5094470;28;20126;-74
2022/08/22 12:10:58;;;;;;;15.52;3.72;;;23.30;99.90;;;;;;5013672;28;20058;-74
2022/08/22 12:13:51;;;;;;;20.85;4.55;;;23.40;99.90;;;;;;5076111;28;20043;-76
2022/08/22 12:16:32;;;;;;;15.60;3.90;;;23.40;99.70;;;;;;5076290;28;20105;-74
2022/08/22 12:19:13;;;;;;;16.08;4.40;;;23.30;99.90;;;;;;5075760;28;20373;-72
2022/08/22 12:22:06;;;;;;;15.43;3.80;;;23.00;99.70;;;;;;5076554;28;20047;-75
2022/08/22 12:24:41;;;;;;;17.15;3.63;;;23.20;99.90;;;;;;5059954;28;20498;-76
2022/08/22 12:27:58;;;;;;;26.58;4.68;;;23.50;99.90;;;;;;5094597;28;20040;-74
2022/08/22 12:30:33;;;;;;;15.65;4.18;;;23.80;99.90;;;;;;5055989;28;20052;-73
2022/08/22 12:33:21;;;;;;;18.20;4.57;;;23.90;99.30;;;;;;5077833;28;20521;-76
2022/08/22 12:36:00;;;;;;;17.67;4.78;;;24.10;99.80;;;;;;5076895;28;20515;-77
2022/08/22 12:38:53;;;;;;;17.77;4.00;;;23.90;99.20;;;;;;5062312;28;20048;-74
2022/08/22 12:41:44;;;;;;;15.88;4.38;;;24.10;99.70;;;;;;5079371;28;20052;-75
2022/08/22 12:44:38;;;;;;;20.05;4.88;;;24.50;99.20;;;;;;5080156;28;20040;-74
2022/08/22 12:47:22;;;;;;;22.67;4.93;;;24.50;98.00;;;;;;5099450;28;20125;-75
2022/08/22 12:50:39;;;;;;;18.58;5.43;;;24.60;99.40;;;;;;5097694;28;20044;-76
2022/08/22 12:53:37;;;;;;;16.42;5.07;;;24.00;97.30;;;;;;4981801;28;20085;-74
2022/08/22 12:56:25;;;;;;;18.80;4.57;;;24.10;98.10;;;;;;5082481;28;20044;-75
2022/08/22 12:59:19;;;;;;;21.00;5.50;;;24.20;98.70;;;;;;5083765;28;20048;-76
2022/08/22 13:01:49;;;;;;;22.52;5.78;;;24.40;98.80;;;;;;5085276;28;20059;-74
2022/08/22 13:04:24;;;;;;;27.58;5.63;;;24.30;97.70;;;;;;5082336;28;20058;-75
2022/08/22 13:07:06;;;;;;;19.67;5.03;;;24.20;97.60;;;;;;5083444;28;20058;-76
2022/08/22 13:09:38;;;;;;;19.73;5.35;;;24.40;98.60;;;;;;5101916;28;20048;-73
2022/08/22 13:12:23;;;;;;;21.38;5.07;;;24.30;98.10;;;;;;5103085;28;20082;-73
2022/08/22 13:14:54;;;;;;;16.20;4.60;;;24.20;98.10;;;;;;5102565;28;20048;-73
2022/08/22 13:17:22;;;;;;;16.90;4.20;;;24.50;98.10;;;;;;5101978;28;20044;-75
2022/08/22 13:20:09;;;;;;;14.20;3.95;;;24.70;97.80;;;;;;5087011;28;20122;-76
2022/08/22 13:22:40;;;;;;;16.88;4.22;;;24.90;97.60;;;;;;5067904;28;20052;-73
2022/08/22 13:25:16;;;;;;;20.20;4.13;;;24.90;95.90;;;;;;5103738;28;20407;-75
2022/08/22 13:27:46;;;;;;;16.58;4.30;;;24.70;94.60;;;;;;5086539;28;20472;-81
2022/08/22 13:30:33;;;;;;;20.00;4.65;;;24.90;96.20;;;;;;5086790;28;20072;-75
2022/08/22 13:33:08;;;;;;;21.55;4.70;;;25.00;96.00;;;;;;5069742;28;20044;-75
2022/08/22 13:35:57;;;;;;;21.48;5.30;;;25.20;96.40;;;;;;5102831;28;20067;-72
2022/08/22 13:38:32;;;;;;;15.85;4.63;;;25.10;95.40;;;;;;5083148;28;20044;-77
2022/08/22 13:40:59;;;;;;;14.57;4.00;;;25.20;96.00;;;;;;5103560;28;20118;-76
2022/08/22 13:43:33;;;;;;;15.85;3.78;;;25.60;95.10;;;;;;5102283;28;20055;-74
2022/08/22 13:46:07;;;;;;;18.30;4.22;;;25.70;94.30;;;;;;5083181;28;20040;-77
2022/08/22 13:48:47;;;;;;;18.90;4.25;;;25.70;94.00;;;;;;5101330;28;20048;-78
2022/08/22 13:51:40;;;;;;;19.25;4.70;;;25.40;93.70;;;;;;5101204;28;20077;-74
2022/08/22 13:54:08;;;;;;;16.20;4.13;;;25.20;92.60;;;;;;5100554;28;20078;-75
2022/08/22 13:56:48;;;;;;;15.82;4.70;;;25.20;93.70;;;;;;5101660;28;20040;-84
2022/08/22 13:59:33;;;;;;;14.55;4.00;;;25.50;94.40;;;;;;5083890;28;20044;-74
2022/08/22 14:02:17;;;;;;;20.67;4.40;;;25.60;94.10;;;;;;5100266;28;20106;-73